sensor_id;sensor_type;location;lat;lon;timestamp;pressure;altitude;pressure_sealevel;temperature;humidity
64683;BME280;51107;47.652;19.016;2022-07-29T00:02:17;99899.00;;;23.49;48.77
64683;BME280;51107;47.652;19.016;2022-07-29T00:04:45;99900.31;;;23.35;50.63
64683;BME280;51107;47.652;19.016;2022-07-29T00:07:13;99898.34;;;23.30;49.61
64683;BME280;51107;47.652;19.016;2022-07-29T00:09:42;99899.84;;;23.26;50.36
64683;BME280;51107;47.652;19.016;2022-07-29T00:12:21;99891.53;;;23.22;49.34
64683;BME280;51107;47.652;19.016;2022-07-29T00:14:54;99893.09;;;23.12;50.39
64683;BME280;51107;47.652;19.016;2022-07-29T00:17:23;99882.47;;;23.12;50.38
64683;BME280;51107;47.652;19.016;2022-07-29T00:19:52;99892.69;;;23.15;50.21
64683;BME280;51107;47.652;19.016;2022-07-29T00:22:21;99894.59;;;23.07;50.24
64683;BME280;51107;47.652;19.016;2022-07-29T00:24:49;99902.50;;;23.14;50.21
64683;BME280;51107;47.652;19.016;2022-07-29T00:27:17;99892.63;;;23.03;50.54
64683;BME280;51107;47.652;19.016;2022-07-29T00:29:46;99892.28;;;22.99;50.94
64683;BME280;51107;47.652;19.016;2022-07-29T00:32:15;99893.78;;;22.95;50.68
64683;BME280;51107;47.652;19.016;2022-07-29T00:34:43;99900.72;;;22.96;50.90
64683;BME280;51107;47.652;19.016;2022-07-29T00:37:30;99895.28;;;22.91;50.60
64683;BME280;51107;47.652;19.016;2022-07-29T00:39:59;99892.63;;;23.03;50.01
64683;BME280;51107;47.652;19.016;2022-07-29T00:42:27;99896.78;;;22.87;51.21
64683;BME280;51107;47.652;19.016;2022-07-29T00:44:56;99891.44;;;22.75;51.87
64683;BME280;51107;47.652;19.016;2022-07-29T00:47:24;99893.06;;;22.76;52.28
64683;BME280;51107;47.652;19.016;2022-07-29T00:49:52;99889.03;;;22.85;50.69
64683;BME280;51107;47.652;19.016;2022-07-29T00:52:21;99892.25;;;22.76;51.82
64683;BME280;51107;47.652;19.016;2022-07-29T00:54:49;99876.19;;;22.82;51.50
64683;BME280;51107;47.652;19.016;2022-07-29T00:57:18;99891.66;;;22.73;51.85
64683;BME280;51107;47.652;19.016;2022-07-29T00:59:46;99885.88;;;22.65;51.84
64683;BME280;51107;47.652;19.016;2022-07-29T01:02:14;99898.09;;;22.66;51.94
64683;BME280;51107;47.652;19.016;2022-07-29T01:04:43;99885.38;;;22.56;51.94
64683;BME280;51107;47.652;19.016;2022-07-29T01:07:11;99891.94;;;22.53;52.39
64683;BME280;51107;47.652;19.016;2022-07-29T01:09:42;99886.66;;;22.53;52.22
64683;BME280;51107;47.652;19.016;2022-07-29T01:12:17;99884.53;;;22.44;52.91
64683;BME280;51107;47.652;19.016;2022-07-29T01:14:48;99882.81;;;22.49;53.10
64683;BME280;51107;47.652;19.016;2022-07-29T01:31:02;99882.94;;;22.43;53.08
64683;BME280;51107;47.652;19.016;2022-07-29T01:33:34;99877.03;;;22.41;53.24
64683;BME280;51107;47.652;19.016;2022-07-29T01:36:37;99869.38;;;22.32;53.56
64683;BME280;51107;47.652;19.016;2022-07-29T01:39:28;99870.13;;;22.21;54.25
64683;BME280;51107;47.652;19.016;2022-07-29T01:42:14;99877.06;;;22.22;53.47
64683;BME280;51107;47.652;19.016;2022-07-29T01:45:12;99878.03;;;22.09;54.53
64683;BME280;51107;47.652;19.016;2022-07-29T01:48:15;99875.53;;;22.14;53.54
64683;BME280;51107;47.652;19.016;2022-07-29T01:50:50;99869.84;;;22.11;54.12
64683;BME280;51107;47.652;19.016;2022-07-29T01:56:31;99867.97;;;21.99;54.14
64683;BME280;51107;47.652;19.016;2022-07-29T01:59:03;99870.84;;;21.98;53.48
64683;BME280;51107;47.652;19.016;2022-07-29T02:01:32;99866.94;;;22.00;53.35
64683;BME280;51107;47.652;19.016;2022-07-29T02:04:03;99859.78;;;22.01;53.46
64683;BME280;51107;47.652;19.016;2022-07-29T02:06:34;99855.00;;;21.91;53.92
64683;BME280;51107;47.652;19.016;2022-07-29T02:09:06;99865.38;;;21.93;54.10
64683;BME280;51107;47.652;19.016;2022-07-29T02:11:36;99869.03;;;21.61;55.45
64683;BME280;51107;47.652;19.016;2022-07-29T02:14:07;99869.66;;;21.38;55.74
64683;BME280;51107;47.652;19.016;2022-07-29T02:16:37;99864.03;;;21.28;56.21
64683;BME280;51107;47.652;19.016;2022-07-29T02:19:09;99860.75;;;21.32;55.98
64683;BME280;51107;47.652;19.016;2022-07-29T02:21:38;99858.66;;;21.16;56.58
64683;BME280;51107;47.652;19.016;2022-07-29T02:24:11;99858.66;;;21.16;56.83
64683;BME280;51107;47.652;19.016;2022-07-29T02:26:41;99848.53;;;21.31;56.17
64683;BME280;51107;47.652;19.016;2022-07-29T02:29:12;99859.13;;;21.31;56.32
64683;BME280;51107;47.652;19.016;2022-07-29T02:31:44;99854.25;;;21.28;56.16
64683;BME280;51107;47.652;19.016;2022-07-29T02:34:15;99857.03;;;21.15;56.74
64683;BME280;51107;47.652;19.016;2022-07-29T02:36:47;99853.78;;;21.13;56.35
64683;BME280;51107;47.652;19.016;2022-07-29T02:39:17;99852.81;;;21.07;56.51
64683;BME280;51107;47.652;19.016;2022-07-29T02:41:54;99849.75;;;21.10;56.29
64683;BME280;51107;47.652;19.016;2022-07-29T02:44:24;99847.38;;;21.02;56.77
64683;BME280;51107;47.652;19.016;2022-07-29T02:47:27;99851.72;;;21.15;56.29
64683;BME280;51107;47.652;19.016;2022-07-29T02:53:00;99846.66;;;21.13;56.80
64683;BME280;51107;47.652;19.016;2022-07-29T03:00:46;99847.97;;;20.79;58.36
64683;BME280;51107;47.652;19.016;2022-07-29T03:03:16;99856.50;;;20.81;58.82
64683;BME280;51107;47.652;19.016;2022-07-29T03:05:45;99856.31;;;20.76;59.92
64683;BME280;51107;47.652;19.016;2022-07-29T03:08:14;99850.56;;;20.85;59.54
64683;BME280;51107;47.652;19.016;2022-07-29T03:10:45;99856.66;;;20.86;59.23
64683;BME280;51107;47.652;19.016;2022-07-29T03:13:15;99855.31;;;20.77;59.64
64683;BME280;51107;47.652;19.016;2022-07-29T03:15:44;99859.41;;;20.66;61.50
64683;BME280;51107;47.652;19.016;2022-07-29T03:18:13;99853.75;;;20.69;60.38
64683;BME280;51107;47.652;19.016;2022-07-29T03:20:43;99860.91;;;20.55;60.50
64683;BME280;51107;47.652;19.016;2022-07-29T03:23:11;99859.62;;;20.64;59.66
64683;BME280;51107;47.652;19.016;2022-07-29T03:25:39;99868.12;;;20.41;60.70
64683;BME280;51107;47.652;19.016;2022-07-29T03:28:08;99858.75;;;20.45;60.69
64683;BME280;51107;47.652;19.016;2022-07-29T03:30:36;99864.09;;;20.39;61.59
64683;BME280;51107;47.652;19.016;2022-07-29T03:33:05;99862.22;;;20.07;61.90
64683;BME280;51107;47.652;19.016;2022-07-29T03:35:41;99864.41;;;20.17;65.40
64683;BME280;51107;47.652;19.016;2022-07-29T03:38:09;99849.75;;;20.21;64.72
64683;BME280;51107;47.652;19.016;2022-07-29T03:40:44;99861.50;;;19.87;63.41
64683;BME280;51107;47.652;19.016;2022-07-29T03:43:16;99863.06;;;20.01;65.17
64683;BME280;51107;47.652;19.016;2022-07-29T03:45:47;99854.63;;;20.17;63.09
64683;BME280;51107;47.652;19.016;2022-07-29T03:48:21;99845.28;;;20.15;63.12
64683;BME280;51107;47.652;19.016;2022-07-29T03:50:50;99856.81;;;20.27;62.26
64683;BME280;51107;47.652;19.016;2022-07-29T03:53:19;99863.50;;;19.98;63.36
64683;BME280;51107;47.652;19.016;2022-07-29T03:55:54;99860.78;;;20.11;63.27
64683;BME280;51107;47.652;19.016;2022-07-29T03:58:26;99861.56;;;20.18;62.82
64683;BME280;51107;47.652;19.016;2022-07-29T04:00:55;99863.00;;;20.14;63.14
64683;BME280;51107;47.652;19.016;2022-07-29T04:03:25;99865.81;;;20.26;62.65
64683;BME280;51107;47.652;19.016;2022-07-29T04:06:05;99862.38;;;20.12;63.87
64683;BME280;51107;47.652;19.016;2022-07-29T04:08:36;99863.59;;;20.16;64.62
64683;BME280;51107;47.652;19.016;2022-07-29T04:11:05;99865.16;;;20.31;64.18
64683;BME280;51107;47.652;19.016;2022-07-29T04:13:33;99869.22;;;20.33;65.19
64683;BME280;51107;47.652;19.016;2022-07-29T04:16:02;99867.03;;;20.24;64.18
64683;BME280;51107;47.652;19.016;2022-07-29T04:18:30;99869.72;;;20.10;62.85
64683;BME280;51107;47.652;19.016;2022-07-29T04:20:58;99874.06;;;19.98;64.36
64683;BME280;51107;47.652;19.016;2022-07-29T04:23:29;99876.44;;;20.13;64.87
64683;BME280;51107;47.652;19.016;2022-07-29T04:26:00;99879.84;;;20.20;64.44
64683;BME280;51107;47.652;19.016;2022-07-29T04:28:29;99871.91;;;20.27;64.49
64683;BME280;51107;47.652;19.016;2022-07-29T04:30:57;99866.75;;;20.39;64.34
64683;BME280;51107;47.652;19.016;2022-07-29T04:33:25;99871.94;;;20.52;63.88
64683;BME280;51107;47.652;19.016;2022-07-29T04:35:54;99876.22;;;20.53;63.82
64683;BME280;51107;47.652;19.016;2022-07-29T04:38:22;99871.44;;;20.68;63.72
64683;BME280;51107;47.652;19.016;2022-07-29T04:40:50;99871.63;;;20.67;63.20
64683;BME280;51107;47.652;19.016;2022-07-29T04:43:19;99876.53;;;20.70;64.44
64683;BME280;51107;47.652;19.016;2022-07-29T04:45:50;99875.91;;;20.75;64.09
64683;BME280;51107;47.652;19.016;2022-07-29T04:48:19;99875.34;;;20.59;63.37
64683;BME280;51107;47.652;19.016;2022-07-29T04:50:55;99872.69;;;20.59;63.33
64683;BME280;51107;47.652;19.016;2022-07-29T04:53:24;99873.31;;;20.68;63.20
64683;BME280;51107;47.652;19.016;2022-07-29T04:55:53;99875.69;;;20.76;62.51
64683;BME280;51107;47.652;19.016;2022-07-29T04:58:21;99871.84;;;20.65;62.41
64683;BME280;51107;47.652;19.016;2022-07-29T05:00:51;99876.38;;;20.58;62.89
64683;BME280;51107;47.652;19.016;2022-07-29T05:03:20;99881.78;;;20.77;61.79
64683;BME280;51107;47.652;19.016;2022-07-29T05:05:48;99872.94;;;20.90;62.64
64683;BME280;51107;47.652;19.016;2022-07-29T05:08:16;99878.81;;;20.92;61.09
64683;BME280;51107;47.652;19.016;2022-07-29T05:10:45;99883.62;;;21.01;61.65
64683;BME280;51107;47.652;19.016;2022-07-29T05:13:13;99876.53;;;21.20;61.38
64683;BME280;51107;47.652;19.016;2022-07-29T05:15:42;99875.88;;;21.25;62.05
64683;BME280;51107;47.652;19.016;2022-07-29T05:18:10;99872.81;;;21.28;61.51
64683;BME280;51107;47.652;19.016;2022-07-29T05:20:38;99870.44;;;21.38;61.81
64683;BME280;51107;47.652;19.016;2022-07-29T05:23:07;99876.06;;;21.49;61.33
64683;BME280;51107;47.652;19.016;2022-07-29T05:25:35;99873.59;;;21.73;60.31
64683;BME280;51107;47.652;19.016;2022-07-29T05:28:12;99875.12;;;21.80;59.49
64683;BME280;51107;47.652;19.016;2022-07-29T05:30:40;99872.06;;;21.83;59.44
64683;BME280;51107;47.652;19.016;2022-07-29T05:33:08;99880.97;;;21.89;59.38
64683;BME280;51107;47.652;19.016;2022-07-29T05:35:57;99883.56;;;22.08;59.27
64683;BME280;51107;47.652;19.016;2022-07-29T05:38:28;99875.91;;;21.99;58.34
64683;BME280;51107;47.652;19.016;2022-07-29T05:40:58;99884.59;;;22.06;58.26
64683;BME280;51107;47.652;19.016;2022-07-29T05:43:29;99883.88;;;22.18;57.19
64683;BME280;51107;47.652;19.016;2022-07-29T05:45:58;99885.91;;;22.34;58.30
64683;BME280;51107;47.652;19.016;2022-07-29T05:48:26;99885.28;;;22.51;57.15
64683;BME280;51107;47.652;19.016;2022-07-29T05:50:55;99881.84;;;22.62;56.87
64683;BME280;51107;47.652;19.016;2022-07-29T05:53:23;99872.72;;;22.70;56.68
64683;BME280;51107;47.652;19.016;2022-07-29T05:55:52;99877.16;;;22.88;56.02
64683;BME280;51107;47.652;19.016;2022-07-29T05:58:21;99879.59;;;22.89;56.80
64683;BME280;51107;47.652;19.016;2022-07-29T06:00:49;99885.47;;;23.03;55.23
64683;BME280;51107;47.652;19.016;2022-07-29T06:03:17;99887.78;;;23.00;55.01
64683;BME280;51107;47.652;19.016;2022-07-29T06:05:46;99886.03;;;23.05;55.57
64683;BME280;51107;47.652;19.016;2022-07-29T06:08:14;99890.22;;;23.25;54.57
64683;BME280;51107;47.652;19.016;2022-07-29T06:10:43;99882.38;;;23.30;55.55
64683;BME280;51107;47.652;19.016;2022-07-29T06:13:12;99887.69;;;23.42;58.14
64683;BME280;51107;47.652;19.016;2022-07-29T06:15:40;99892.19;;;23.53;54.55
64683;BME280;51107;47.652;19.016;2022-07-29T06:18:08;99892.97;;;23.66;54.58
64683;BME280;51107;47.652;19.016;2022-07-29T06:20:38;99886.81;;;23.77;53.63
64683;BME280;51107;47.652;19.016;2022-07-29T06:23:06;99891.44;;;23.94;54.32
64683;BME280;51107;47.652;19.016;2022-07-29T06:25:34;99889.53;;;24.18;52.34
64683;BME280;51107;47.652;19.016;2022-07-29T06:28:04;99890.38;;;24.35;52.01
64683;BME280;51107;47.652;19.016;2022-07-29T06:30:32;99897.62;;;24.40;54.47
64683;BME280;51107;47.652;19.016;2022-07-29T06:33:01;99897.50;;;24.47;51.30
64683;BME280;51107;47.652;19.016;2022-07-29T06:35:30;99897.28;;;24.65;50.58
64683;BME280;51107;47.652;19.016;2022-07-29T06:38:09;99904.50;;;24.82;50.34
64683;BME280;51107;47.652;19.016;2022-07-29T06:40:59;99899.81;;;24.89;50.41
64683;BME280;51107;47.652;19.016;2022-07-29T06:43:30;99893.59;;;25.00;48.90
64683;BME280;51107;47.652;19.016;2022-07-29T06:46:02;99894.72;;;25.04;46.94
64683;BME280;51107;47.652;19.016;2022-07-29T06:48:31;99908.06;;;25.04;48.23
64683;BME280;51107;47.652;19.016;2022-07-29T06:51:00;99908.06;;;25.04;48.90
64683;BME280;51107;47.652;19.016;2022-07-29T06:53:28;99903.81;;;25.25;46.37
64683;BME280;51107;47.652;19.016;2022-07-29T06:55:59;99904.88;;;25.41;48.26
64683;BME280;51107;47.652;19.016;2022-07-29T06:58:28;99904.66;;;25.43;47.80
64683;BME280;51107;47.652;19.016;2022-07-29T07:00:58;99914.56;;;25.31;48.82
64683;BME280;51107;47.652;19.016;2022-07-29T07:03:28;99913.44;;;25.26;48.09
64683;BME280;51107;47.652;19.016;2022-07-29T07:05:57;99904.34;;;25.84;47.05
64683;BME280;51107;47.652;19.016;2022-07-29T07:08:27;99905.44;;;26.05;47.16
64683;BME280;51107;47.652;19.016;2022-07-29T07:10:55;99910.69;;;26.00;47.22
64683;BME280;51107;47.652;19.016;2022-07-29T07:13:24;99913.59;;;25.98;47.07
64683;BME280;51107;47.652;19.016;2022-07-29T07:15:53;99912.25;;;26.18;46.89
64683;BME280;51107;47.652;19.016;2022-07-29T07:18:21;99905.22;;;26.39;47.58
64683;BME280;51107;47.652;19.016;2022-07-29T07:20:49;99909.53;;;26.40;47.53
64683;BME280;51107;47.652;19.016;2022-07-29T07:23:18;99904.38;;;26.60;45.57
64683;BME280;51107;47.652;19.016;2022-07-29T07:25:46;99903.53;;;26.87;44.73
64683;BME280;51107;47.652;19.016;2022-07-29T07:28:15;99903.03;;;27.28;43.14
64683;BME280;51107;47.652;19.016;2022-07-29T07:30:44;99904.19;;;27.42;44.35
64683;BME280;51107;47.652;19.016;2022-07-29T07:33:13;99897.62;;;27.60;42.83
64683;BME280;51107;47.652;19.016;2022-07-29T07:35:42;99900.13;;;27.88;43.07
64683;BME280;51107;47.652;19.016;2022-07-29T07:38:10;99897.31;;;28.30;41.62
64683;BME280;51107;47.652;19.016;2022-07-29T07:40:39;99896.81;;;28.54;39.93
64683;BME280;51107;47.652;19.016;2022-07-29T07:43:07;99897.66;;;28.80;41.38
64683;BME280;51107;47.652;19.016;2022-07-29T07:45:35;99904.09;;;28.85;40.12
64683;BME280;51107;47.652;19.016;2022-07-29T07:48:05;99896.84;;;28.85;41.44
64683;BME280;51107;47.652;19.016;2022-07-29T07:50:33;99886.34;;;29.25;42.13
64683;BME280;51107;47.652;19.016;2022-07-29T07:53:02;99889.31;;;29.94;39.38
64683;BME280;51107;47.652;19.016;2022-07-29T07:55:31;99897.19;;;30.25;38.26
64683;BME280;51107;47.652;19.016;2022-07-29T07:58:19;99889.28;;;30.39;38.05
64683;BME280;51107;47.652;19.016;2022-07-29T08:00:48;99889.13;;;30.25;40.53
64683;BME280;51107;47.652;19.016;2022-07-29T08:03:16;99893.81;;;30.83;38.26
64683;BME280;51107;47.652;19.016;2022-07-29T08:05:44;99886.06;;;30.76;36.44
64683;BME280;51107;47.652;19.016;2022-07-29T08:08:14;99886.84;;;31.36;38.05
64683;BME280;51107;47.652;19.016;2022-07-29T08:10:42;99885.28;;;31.29;36.21
64683;BME280;51107;47.652;19.016;2022-07-29T08:13:21;99884.50;;;30.70;37.76
64683;BME280;51107;47.652;19.016;2022-07-29T08:15:50;99879.59;;;30.48;36.45
64683;BME280;51107;47.652;19.016;2022-07-29T08:18:40;99883.56;;;30.85;36.69
64683;BME280;51107;47.652;19.016;2022-07-29T08:21:09;99881.19;;;31.61;38.31
64683;BME280;51107;47.652;19.016;2022-07-29T08:23:43;99882.75;;;32.06;34.28
64683;BME280;51107;47.652;19.016;2022-07-29T08:26:25;99882.19;;;32.28;36.86
64683;BME280;51107;47.652;19.016;2022-07-29T08:28:54;99884.25;;;32.50;33.64
64683;BME280;51107;47.652;19.016;2022-07-29T08:31:22;99877.97;;;32.74;35.12
64683;BME280;51107;47.652;19.016;2022-07-29T08:33:51;99878.97;;;32.78;33.27
64683;BME280;51107;47.652;19.016;2022-07-29T08:36:19;99879.81;;;32.59;34.33
64683;BME280;51107;47.652;19.016;2022-07-29T08:38:49;99878.37;;;32.62;35.32
64683;BME280;51107;47.652;19.016;2022-07-29T08:41:19;99880.97;;;32.86;33.82
64683;BME280;51107;47.652;19.016;2022-07-29T08:43:49;99877.81;;;33.12;34.64
64683;BME280;51107;47.652;19.016;2022-07-29T08:46:18;99873.19;;;33.68;33.21
64683;BME280;51107;47.652;19.016;2022-07-29T08:48:47;99870.38;;;33.87;32.70
64683;BME280;51107;47.652;19.016;2022-07-29T08:51:18;99871.94;;;33.38;32.93
64683;BME280;51107;47.652;19.016;2022-07-29T08:53:48;99874.75;;;33.46;32.60
64683;BME280;51107;47.652;19.016;2022-07-29T08:56:18;99877.50;;;33.83;30.08
64683;BME280;51107;47.652;19.016;2022-07-29T08:58:48;99878.50;;;33.04;33.81
64683;BME280;51107;47.652;19.016;2022-07-29T09:01:25;99867.00;;;33.81;30.81
64683;BME280;51107;47.652;19.016;2022-07-29T09:04:11;99868.59;;;34.42;30.22
64683;BME280;51107;47.652;19.016;2022-07-29T09:06:45;99861.00;;;34.07;31.21
64683;BME280;51107;47.652;19.016;2022-07-29T09:09:14;99867.62;;;34.38;30.81
64683;BME280;51107;47.652;19.016;2022-07-29T09:11:43;99864.19;;;34.77;30.62
64683;BME280;51107;47.652;19.016;2022-07-29T09:14:13;99865.91;;;34.05;29.58
64683;BME280;51107;47.652;19.016;2022-07-29T09:16:53;99858.13;;;34.26;32.48
64683;BME280;51107;47.652;19.016;2022-07-29T09:21:56;99851.44;;;35.09;31.06
64683;BME280;51107;47.652;19.016;2022-07-29T09:24:45;99854.16;;;35.18;29.28
64683;BME280;51107;47.652;19.016;2022-07-29T09:29:46;99858.16;;;34.80;28.80
64683;BME280;51107;47.652;19.016;2022-07-29T09:32:14;99855.25;;;34.77;31.83
64683;BME280;51107;47.652;19.016;2022-07-29T09:34:43;99859.94;;;35.25;30.64
64683;BME280;51107;47.652;19.016;2022-07-29T09:37:11;99855.56;;;35.56;27.27
64683;BME280;51107;47.652;19.016;2022-07-29T09:39:40;99850.22;;;35.24;28.68
64683;BME280;51107;47.652;19.016;2022-07-29T09:42:28;99839.03;;;34.45;29.70
64683;BME280;51107;47.652;19.016;2022-07-29T09:44:56;99843.50;;;34.50;29.82
64683;BME280;51107;47.652;19.016;2022-07-29T09:47:41;99846.03;;;35.09;29.56
64683;BME280;51107;47.652;19.016;2022-07-29T09:50:10;99837.47;;;35.25;27.53
64683;BME280;51107;47.652;19.016;2022-07-29T09:52:49;99836.28;;;34.91;30.12
64683;BME280;51107;47.652;19.016;2022-07-29T09:55:19;99831.22;;;35.07;29.28
64683;BME280;51107;47.652;19.016;2022-07-29T09:57:47;99826.09;;;35.63;26.92
64683;BME280;51107;47.652;19.016;2022-07-29T10:00:17;99834.75;;;34.76;29.92
64683;BME280;51107;47.652;19.016;2022-07-29T10:02:47;99826.28;;;35.84;26.84
64683;BME280;51107;47.652;19.016;2022-07-29T10:05:21;99823.09;;;35.91;28.47
64683;BME280;51107;47.652;19.016;2022-07-29T10:07:51;99830.41;;;36.16;28.13
64683;BME280;51107;47.652;19.016;2022-07-29T10:10:29;99833.53;;;35.40;26.69
64683;BME280;51107;47.652;19.016;2022-07-29T10:13:00;99826.13;;;35.14;26.29
64683;BME280;51107;47.652;19.016;2022-07-29T10:15:39;99824.19;;;36.07;27.58
64683;BME280;51107;47.652;19.016;2022-07-29T10:18:13;99819.94;;;35.22;25.79
64683;BME280;51107;47.652;19.016;2022-07-29T10:20:42;99816.16;;;34.83;29.45
64683;BME280;51107;47.652;19.016;2022-07-29T10:23:10;99822.78;;;35.08;28.28
64683;BME280;51107;47.652;19.016;2022-07-29T10:25:39;99818.28;;;34.95;26.05
64683;BME280;51107;47.652;19.016;2022-07-29T10:28:13;99816.34;;;35.44;27.60
64683;BME280;51107;47.652;19.016;2022-07-29T10:30:45;99812.88;;;35.61;25.99
64683;BME280;51107;47.652;19.016;2022-07-29T10:39:10;99802.97;;;34.81;27.10
64683;BME280;51107;47.652;19.016;2022-07-29T10:42:11;99810.69;;;35.14;29.14
64683;BME280;51107;47.652;19.016;2022-07-29T10:44:47;99803.50;;;35.01;25.97
64683;BME280;51107;47.652;19.016;2022-07-29T10:47:26;99789.44;;;35.39;27.98
64683;BME280;51107;47.652;19.016;2022-07-29T10:50:04;99794.22;;;35.42;27.75
64683;BME280;51107;47.652;19.016;2022-07-29T10:52:53;99794.75;;;35.04;26.24
64683;BME280;51107;47.652;19.016;2022-07-29T10:55:38;99780.03;;;34.87;26.21
64683;BME280;51107;47.652;19.016;2022-07-29T10:58:18;99786.09;;;35.60;26.70
64683;BME280;51107;47.652;19.016;2022-07-29T11:00:52;99778.91;;;35.55;25.64
64683;BME280;51107;47.652;19.016;2022-07-29T11:03:44;99785.31;;;34.84;27.52
64683;BME280;51107;47.652;19.016;2022-07-29T11:06:17;99781.19;;;35.04;27.60
64683;BME280;51107;47.652;19.016;2022-07-29T11:09:19;99780.03;;;34.87;25.94
64683;BME280;51107;47.652;19.016;2022-07-29T11:15:08;99771.87;;;34.79;26.29
64683;BME280;51107;47.652;19.016;2022-07-29T11:23:37;99762.28;;;34.73;27.50
64683;BME280;51107;47.652;19.016;2022-07-29T11:32:12;99743.41;;;33.73;27.22
64683;BME280;51107;47.652;19.016;2022-07-29T11:35:10;99752.69;;;33.08;28.88
64683;BME280;51107;47.652;19.016;2022-07-29T11:37:46;99743.91;;;33.02;29.99
64683;BME280;51107;47.652;19.016;2022-07-29T11:40:24;99733.81;;;32.80;28.87
64683;BME280;51107;47.652;19.016;2022-07-29T11:42:53;99742.47;;;32.49;28.69
64683;BME280;51107;47.652;19.016;2022-07-29T11:45:23;99748.03;;;32.39;28.98
64683;BME280;51107;47.652;19.016;2022-07-29T11:48:18;99734.87;;;32.04;28.83
64683;BME280;51107;47.652;19.016;2022-07-29T11:51:09;99734.22;;;31.93;29.61
64683;BME280;51107;47.652;19.016;2022-07-29T11:53:46;99734.31;;;31.69;29.60
64683;BME280;51107;47.652;19.016;2022-07-29T11:56:21;99739.56;;;31.79;29.28
64683;BME280;51107;47.652;19.016;2022-07-29T11:59:06;99736.09;;;31.93;30.26
64683;BME280;51107;47.652;19.016;2022-07-29T12:01:36;99734.81;;;31.90;29.67
64683;BME280;51107;47.652;19.016;2022-07-29T12:04:05;99726.19;;;32.07;29.50
64683;BME280;51107;47.652;19.016;2022-07-29T12:06:35;99731.34;;;32.37;30.69
64683;BME280;51107;47.652;19.016;2022-07-29T12:09:07;99721.56;;;32.41;28.93
64683;BME280;51107;47.652;19.016;2022-07-29T12:11:41;99721.50;;;32.60;28.45
64683;BME280;51107;47.652;19.016;2022-07-29T12:14:27;99715.94;;;32.84;29.28
64683;BME280;51107;47.652;19.016;2022-07-29T12:16:57;99707.94;;;32.79;28.06
64683;BME280;51107;47.652;19.016;2022-07-29T12:19:26;99709.94;;;32.87;28.21
64683;BME280;51107;47.652;19.016;2022-07-29T12:21:55;99702.94;;;32.72;28.66
64683;BME280;51107;47.652;19.016;2022-07-29T12:24:43;99707.03;;;32.83;28.45
64683;BME280;51107;47.652;19.016;2022-07-29T12:27:11;99702.00;;;32.63;27.61
64683;BME280;51107;47.652;19.016;2022-07-29T12:29:58;99692.31;;;32.48;28.27
64683;BME280;51107;47.652;19.016;2022-07-29T12:32:39;99677.75;;;32.35;28.41
64683;BME280;51107;47.652;19.016;2022-07-29T12:35:14;99691.53;;;32.47;28.66
64683;BME280;51107;47.652;19.016;2022-07-29T12:37:44;99687.22;;;32.60;28.40
64683;BME280;51107;47.652;19.016;2022-07-29T12:40:15;99683.84;;;32.55;27.47
64683;BME280;51107;47.652;19.016;2022-07-29T12:43:08;99679.13;;;32.60;28.82
64683;BME280;51107;47.652;19.016;2022-07-29T12:45:39;99671.34;;;32.59;28.41
64683;BME280;51107;47.652;19.016;2022-07-29T12:48:07;99668.28;;;32.38;28.65
64683;BME280;51107;47.652;19.016;2022-07-29T12:50:56;99666.56;;;32.28;29.16
64683;BME280;51107;47.652;19.016;2022-07-29T12:53:25;99659.38;;;32.37;27.88
64683;BME280;51107;47.652;19.016;2022-07-29T12:55:56;99658.41;;;32.47;28.83
64683;BME280;51107;47.652;19.016;2022-07-29T13:01:17;99652.28;;;32.55;28.80
64683;BME280;51107;47.652;19.016;2022-07-29T13:03:55;99648.78;;;32.55;29.29
64683;BME280;51107;47.652;19.016;2022-07-29T13:09:08;99649.78;;;32.73;28.22
64683;BME280;51107;47.652;19.016;2022-07-29T13:11:40;99653.28;;;32.59;28.73
64683;BME280;51107;47.652;19.016;2022-07-29T13:14:33;99649.28;;;32.57;27.29
64683;BME280;51107;47.652;19.016;2022-07-29T13:17:10;99635.59;;;32.81;27.17
64683;BME280;51107;47.652;19.016;2022-07-29T13:19:47;99635.09;;;32.93;26.75
64683;BME280;51107;47.652;19.016;2022-07-29T13:22:23;99633.94;;;33.08;27.02
64683;BME280;51107;47.652;19.016;2022-07-29T13:25:00;99638.88;;;32.92;26.44
64683;BME280;51107;47.652;19.016;2022-07-29T13:27:32;99629.94;;;32.27;27.43
64683;BME280;51107;47.652;19.016;2022-07-29T13:30:04;99621.84;;;32.27;28.18
64683;BME280;51107;47.652;19.016;2022-07-29T13:32:34;99621.44;;;32.33;28.08
64683;BME280;51107;47.652;19.016;2022-07-29T13:35:05;99623.94;;;32.30;27.94
64683;BME280;51107;47.652;19.016;2022-07-29T13:37:35;99613.75;;;32.27;28.74
64683;BME280;51107;47.652;19.016;2022-07-29T13:40:07;99618.66;;;32.53;28.10
64683;BME280;51107;47.652;19.016;2022-07-29T13:42:37;99617.03;;;32.51;26.68
64683;BME280;51107;47.652;19.016;2022-07-29T13:45:06;99608.44;;;32.35;27.18
64683;BME280;51107;47.652;19.016;2022-07-29T13:47:34;99607.38;;;32.37;26.92
64683;BME280;51107;47.652;19.016;2022-07-29T13:50:04;99609.44;;;32.40;27.20
64683;BME280;51107;47.652;19.016;2022-07-29T13:52:34;99607.06;;;32.24;28.40
64683;BME280;51107;47.652;19.016;2022-07-29T13:55:03;99607.66;;;32.21;27.36
64683;BME280;51107;47.652;19.016;2022-07-29T13:57:32;99600.66;;;32.06;28.79
64683;BME280;51107;47.652;19.016;2022-07-29T14:00:00;99598.94;;;31.82;28.08
64683;BME280;51107;47.652;19.016;2022-07-29T14:02:35;99594.25;;;31.88;27.77
64683;BME280;51107;47.652;19.016;2022-07-29T14:05:05;99593.53;;;31.82;27.79
64683;BME280;51107;47.652;19.016;2022-07-29T14:07:39;99592.53;;;31.78;28.62
64683;BME280;51107;47.652;19.016;2022-07-29T14:10:08;99589.03;;;31.78;28.84
64683;BME280;51107;47.652;19.016;2022-07-29T14:12:37;99579.53;;;31.66;29.33
64683;BME280;51107;47.652;19.016;2022-07-29T14:15:06;99586.31;;;31.64;29.27